Time;durP1;ratioP1;P1;durP2;ratioP2;P2;SDS_P1;SDS_P2;PMS_P1;PMS_P2;Temp;Humidity;BMP_temperature;BMP_pressure;BME280_temperature;BME280_humidity;BME280_pressure;Samples;Min_cycle;Max_cycle;Signal;HPM_P1;HPM_P2
2023/01/01 00:01:38;;;;;;;25.27;14.30;;;;;;;;;;4989166;28;98719;-75
2023/01/01 00:04:07;;;;;;;20.95;11.73;;;;;;;;;;4993425;28;98983;-74
2023/01/01 00:06:34;;;;;;;36.60;18.13;;;;;;;;;;4987886;28;98814;-74
2023/01/01 00:11:45;;;;;;;23.17;13.80;;;;;;;;;;4990483;27;98286;-75
2023/01/01 00:14:11;;;;;;;25.20;11.93;;;;;;;;;;4989373;28;100054;-74
2023/01/01 00:16:38;;;;;;;16.70;9.55;;;;;;;;;;4989479;28;98957;-74
2023/01/01 00:19:05;;;;;;;21.75;10.50;;;;;;;;;;4989584;28;98474;-74
2023/01/01 00:21:31;;;;;;;26.50;13.48;;;;;;;;;;4989336;28;98566;-74
2023/01/01 00:23:57;;;;;;;24.60;11.43;;;;;;;;;;4989724;28;100120;-75
2023/01/01 00:26:24;;;;;;;23.80;11.63;;;;;;;;;;4992694;28;97998;-75
2023/01/01 00:29:00;;;;;;;26.13;14.57;;;;;;;;;;4988787;28;99429;-75
2023/01/01 00:31:26;;;;;;;29.50;14.07;;;;;;;;;;4988541;28;98459;-74
2023/01/01 00:33:53;;;;;;;32.83;16.65;;;;;;;;;;4989440;28;99874;-75
2023/01/01 00:36:21;;;;;;;32.95;15.52;;;;;;;;;;4988691;28;99282;-74
2023/01/01 00:38:47;;;;;;;29.42;12.85;;;;;;;;;;4989076;28;98262;-74
2023/01/01 00:41:15;;;;;;;22.30;12.43;;;;;;;;;;4989781;28;98349;-74
2023/01/01 00:43:41;;;;;;;27.48;11.80;;;;;;;;;;4988353;28;99161;-74
2023/01/01 00:46:08;;;;;;;28.05;13.70;;;;;;;;;;4989242;28;98317;-74
2023/01/01 00:48:35;;;;;;;31.27;18.25;;;;;;;;;;4992721;28;98776;-74
2023/01/01 00:51:02;;;;;;;26.42;11.85;;;;;;;;;;4989042;28;98847;-74
2023/01/01 00:53:28;;;;;;;25.40;12.48;;;;;;;;;;4988945;28;99478;-74
2023/01/01 00:55:55;;;;;;;18.88;10.02;;;;;;;;;;4987507;28;100168;-74
2023/01/01 00:58:22;;;;;;;24.17;9.55;;;;;;;;;;4989477;28;98751;-75
2023/01/01 01:00:49;;;;;;;17.77;8.52;;;;;;;;;;4988906;28;99544;-75
2023/01/01 01:03:29;;;;;;;16.98;6.93;;;;;;;;;;4988310;28;100454;-75
2023/01/01 01:06:07;;;;;;;19.38;6.78;;;;;;;;;;4989378;28;99048;-74
2023/01/01 01:08:35;;;;;;;13.55;6.75;;;;;;;;;;4988711;28;99123;-76
2023/01/01 01:11:05;;;;;;;20.85;7.43;;;;;;;;;;4990932;28;99355;-75
2023/01/01 01:13:33;;;;;;;19.02;7.32;;;;;;;;;;4989063;28;98311;-75
2023/01/01 01:15:59;;;;;;;19.10;6.88;;;;;;;;;;4989218;28;98989;-76
2023/01/01 01:18:25;;;;;;;22.90;7.82;;;;;;;;;;4988547;28;98496;-75
2023/01/01 01:20:52;;;;;;;10.43;5.70;;;;;;;;;;4988365;28;98447;-76
2023/01/01 01:23:19;;;;;;;14.32;6.38;;;;;;;;;;4988795;28;100330;-75
2023/01/01 01:25:46;;;;;;;15.40;5.93;;;;;;;;;;4987818;28;98378;-76
2023/01/01 01:28:12;;;;;;;15.90;6.07;;;;;;;;;;4988826;28;98627;-74
2023/01/01 01:30:39;;;;;;;19.98;5.82;;;;;;;;;;4991759;28;100133;-75
2023/01/01 01:33:06;;;;;;;16.55;4.70;;;;;;;;;;4988149;28;98571;-75
2023/01/01 01:35:32;;;;;;;10.80;3.80;;;;;;;;;;4988428;28;99219;-74
2023/01/01 01:37:58;;;;;;;6.85;4.03;;;;;;;;;;4988541;28;98013;-74
2023/01/01 01:40:25;;;;;;;13.35;4.88;;;;;;;;;;4988043;28;98623;-74
2023/01/01 01:42:52;;;;;;;15.48;4.70;;;;;;;;;;4988981;28;99527;-75
2023/01/01 01:45:19;;;;;;;12.57;4.38;;;;;;;;;;4987315;28;98690;-74
2023/01/01 01:47:48;;;;;;;17.02;4.95;;;;;;;;;;4988516;28;98519;-74
2023/01/01 01:50:31;;;;;;;14.93;4.45;;;;;;;;;;4988026;28;99108;-74
2023/01/01 01:53:03;;;;;;;7.93;3.90;;;;;;;;;;4990987;28;98167;-74
2023/01/01 01:55:31;;;;;;;9.77;4.32;;;;;;;;;;4988044;28;100054;-73
2023/01/01 01:57:57;;;;;;;16.98;4.55;;;;;;;;;;4988320;28;98265;-74
2023/01/01 02:00:24;;;;;;;15.20;4.07;;;;;;;;;;4987415;28;98857;-73
2023/01/01 02:02:53;;;;;;;12.25;5.10;;;;;;;;;;4988452;28;99986;-73
2023/01/01 02:05:20;;;;;;;14.57;4.55;;;;;;;;;;4987976;28;99049;-73
2023/01/01 02:07:47;;;;;;;10.20;4.53;;;;;;;;;;4987494;28;99352;-75
2023/01/01 02:10:14;;;;;;;6.70;3.92;;;;;;;;;;4986984;28;100009;-74
2023/01/01 02:12:40;;;;;;;9.13;3.53;;;;;;;;;;4988031;28;98653;-74
2023/01/01 02:15:07;;;;;;;11.63;3.22;;;;;;;;;;4990698;28;99586;-74
2023/01/01 02:17:38;;;;;;;11.52;3.85;;;;;;;;;;4987790;28;98280;-74
2023/01/01 02:20:20;;;;;;;11.32;4.47;;;;;;;;;;4988526;28;98444;-74
2023/01/01 02:22:52;;;;;;;8.20;3.47;;;;;;;;;;4987750;28;99040;-74
2023/01/01 02:25:43;;;;;;;10.77;3.42;;;;;;;;;;4987802;28;98329;-75
2023/01/01 02:28:18;;;;;;;19.60;3.95;;;;;;;;;;4987608;28;99632;-75
2023/01/01 02:30:46;;;;;;;9.45;3.15;;;;;;;;;;4988130;28;100135;-75
2023/01/01 02:33:15;;;;;;;15.05;4.18;;;;;;;;;;4987865;28;98798;-75
2023/01/01 02:35:47;;;;;;;9.93;3.25;;;;;;;;;;4986675;28;98857;-74
2023/01/01 02:38:22;;;;;;;4.95;3.38;;;;;;;;;;4990835;28;99878;-74
2023/01/01 02:40:51;;;;;;;13.85;4.10;;;;;;;;;;4987576;28;99435;-74
2023/01/01 02:43:18;;;;;;;8.07;3.25;;;;;;;;;;4987030;28;100270;-74
2023/01/01 02:45:50;;;;;;;19.25;3.90;;;;;;;;;;4987789;28;98197;-74
2023/01/01 02:48:36;;;;;;;11.55;3.35;;;;;;;;;;4987402;28;99376;-74
2023/01/01 02:51:03;;;;;;;7.50;3.15;;;;;;;;;;4987389;28;99296;-74
2023/01/01 02:53:32;;;;;;;7.70;2.78;;;;;;;;;;4987363;28;98283;-74
2023/01/01 02:55:58;;;;;;;8.38;3.13;;;;;;;;;;4986816;28;98519;-74
2023/01/01 03:01:32;;;;;;;8.65;2.80;;;;;;;;;;4989775;28;98338;-75
2023/01/01 03:03:58;;;;;;;13.52;5.13;;;;;;;;;;4986618;28;100509;-74
2023/01/01 03:06:33;;;;;;;9.98;3.85;;;;;;;;;;4987083;28;98225;-74
2023/01/01 03:09:04;;;;;;;10.20;2.80;;;;;;;;;;4987134;28;99420;-75
2023/01/01 03:11:36;;;;;;;8.70;3.80;;;;;;;;;;4986501;28;98052;-75
2023/01/01 03:14:05;;;;;;;13.05;3.08;;;;;;;;;;4987200;28;98298;-75
2023/01/01 03:16:32;;;;;;;12.15;3.03;;;;;;;;;;4986479;28;99662;-74
2023/01/01 03:19:10;;;;;;;11.10;2.80;;;;;;;;;;4987328;28;100174;-75
2023/01/01 03:21:38;;;;;;;9.43;2.78;;;;;;;;;;4987021;28;98203;-76
2023/01/01 03:24:04;;;;;;;6.57;2.30;;;;;;;;;;4989887;28;98594;-75
2023/01/01 03:26:34;;;;;;;2.38;2.15;;;;;;;;;;4985981;28;98310;-75
2023/01/01 03:29:00;;;;;;;7.90;2.60;;;;;;;;;;4987244;28;99434;-75
2023/01/01 03:31:27;;;;;;;7.63;2.25;;;;;;;;;;4986050;28;100112;-75
2023/01/01 03:34:15;;;;;;;6.63;2.97;;;;;;;;;;4986984;28;98598;-74
2023/01/01 03:36:45;;;;;;;6.35;2.45;;;;;;;;;;4986918;28;99542;-75
2023/01/01 03:39:17;;;;;;;5.22;2.05;;;;;;;;;;4985909;28;99128;-75
2023/01/01 03:41:52;;;;;;;7.28;2.53;;;;;;;;;;4986751;28;98270;-75
2023/01/01 03:44:22;;;;;;;5.72;2.30;;;;;;;;;;4990327;28;98585;-74
2023/01/01 03:46:49;;;;;;;9.63;2.67;;;;;;;;;;4986195;28;98280;-75
2023/01/01 03:49:16;;;;;;;8.95;2.53;;;;;;;;;;4987068;28;98396;-74
2023/01/01 03:51:58;;;;;;;9.27;3.20;;;;;;;;;;4985025;28;99139;-75
2023/01/01 03:54:32;;;;;;;4.93;2.08;;;;;;;;;;4986360;28;98329;-75
2023/01/01 03:57:15;;;;;;;7.22;2.22;;;;;;;;;;4987209;28;98920;-74
2023/01/01 03:59:50;;;;;;;14.63;2.92;;;;;;;;;;4985674;28;100005;-74
2023/01/01 04:02:19;;;;;;;8.75;3.35;;;;;;;;;;4986966;28;98273;-74
2023/01/01 04:04:47;;;;;;;7.90;2.88;;;;;;;;;;4986389;28;98979;-75
2023/01/01 04:07:14;;;;;;;5.20;2.10;;;;;;;;;;4989011;28;100005;-74
2023/01/01 04:09:44;;;;;;;6.28;2.00;;;;;;;;;;4986133;28;98568;-74
2023/01/01 04:12:10;;;;;;;7.07;2.13;;;;;;;;;;4986402;28;100037;-75
2023/01/01 04:14:38;;;;;;;6.78;1.90;;;;;;;;;;4985342;28;99302;-74
2023/01/01 04:17:05;;;;;;;6.22;2.58;;;;;;;;;;4985724;28;99540;-75
2023/01/01 04:19:31;;;;;;;6.13;2.20;;;;;;;;;;4986340;28;100421;-74
2023/01/01 04:21:58;;;;;;;9.57;2.97;;;;;;;;;;4986170;28;99189;-74
2023/01/01 04:24:24;;;;;;;4.50;2.00;;;;;;;;;;4986458;28;99393;-74
2023/01/01 04:26:51;;;;;;;10.38;2.35;;;;;;;;;;4985919;28;98987;-74
2023/01/01 04:29:18;;;;;;;9.43;2.20;;;;;;;;;;4989737;28;98246;-74
2023/01/01 04:31:44;;;;;;;6.22;2.10;;;;;;;;;;4986233;28;99096;-74
2023/01/01 04:34:11;;;;;;;5.40;1.60;;;;;;;;;;4985991;28;98358;-75
2023/01/01 04:36:37;;;;;;;4.03;1.85;;;;;;;;;;4986137;28;99588;-75
2023/01/01 04:39:04;;;;;;;9.25;2.05;;;;;;;;;;4986489;28;99152;-74
2023/01/01 04:41:30;;;;;;;7.13;2.38;;;;;;;;;;4984454;28;98253;-75
2023/01/01 04:43:58;;;;;;;13.80;2.10;;;;;;;;;;4986459;28;98428;-75
2023/01/01 04:46:24;;;;;;;9.48;2.83;;;;;;;;;;4986328;28;99891;-75
2023/01/01 04:48:50;;;;;;;8.32;2.47;;;;;;;;;;4989761;28;98463;-75
2023/01/01 04:51:18;;;;;;;5.00;2.53;;;;;;;;;;4993873;28;99318;-75
2023/01/01 04:53:45;;;;;;;6.70;2.95;;;;;;;;;;4989678;28;98291;-75
2023/01/01 04:56:12;;;;;;;9.73;2.85;;;;;;;;;;4988984;28;99934;-75
2023/01/01 04:58:39;;;;;;;7.18;2.70;;;;;;;;;;4989446;28;99381;-75
2023/01/01 05:01:07;;;;;;;9.15;2.60;;;;;;;;;;4989807;28;98320;-74
2023/01/01 05:03:34;;;;;;;8.55;2.85;;;;;;;;;;4989001;28;98386;-74
2023/01/01 05:06:04;;;;;;;6.57;2.50;;;;;;;;;;4988660;28;98916;-74
2023/01/01 05:08:31;;;;;;;10.82;2.78;;;;;;;;;;4988334;28;98294;-75
2023/01/01 05:11:00;;;;;;;7.07;2.17;;;;;;;;;;4989069;28;98868;-74
2023/01/01 05:13:27;;;;;;;14.40;2.50;;;;;;;;;;4992368;28;99063;-74
2023/01/01 05:15:53;;;;;;;4.75;2.70;;;;;;;;;;4989244;28;98588;-74
2023/01/01 05:18:19;;;;;;;11.48;3.30;;;;;;;;;;4988181;28;99959;-74
2023/01/01 05:20:46;;;;;;;10.40;2.50;;;;;;;;;;4988700;28;98361;-74
2023/01/01 05:23:14;;;;;;;12.55;2.40;;;;;;;;;;4989076;28;98350;-74
2023/01/01 05:25:40;;;;;;;7.05;2.22;;;;;;;;;;4988864;28;99157;-74
2023/01/01 05:28:07;;;;;;;10.82;2.90;;;;;;;;;;4989392;28;98281;-74
2023/01/01 05:30:33;;;;;;;10.48;3.08;;;;;;;;;;4987500;28;99066;-75
2023/01/01 05:32:59;;;;;;;9.05;2.28;;;;;;;;;;4989013;28;99108;-74
2023/01/01 05:35:26;;;;;;;5.47;1.85;;;;;;;;;;4991866;28;98297;-74
2023/01/01 05:37:54;;;;;;;3.60;1.60;;;;;;;;;;4987834;28;100186;-74
2023/01/01 05:40:21;;;;;;;7.20;2.25;;;;;;;;;;4988876;28;98281;-75
2023/01/01 05:42:48;;;;;;;12.20;2.67;;;;;;;;;;4988662;28;100223;-75
2023/01/01 05:45:15;;;;;;;7.13;2.05;;;;;;;;;;4988019;28;99984;-73
2023/01/01 05:47:41;;;;;;;11.77;2.10;;;;;;;;;;4988790;28;98339;-74
2023/01/01 05:50:08;;;;;;;8.25;1.92;;;;;;;;;;4988526;28;100019;-73
2023/01/01 05:52:33;;;;;;;6.28;1.63;;;;;;;;;;4987554;28;99767;-75
2023/01/01 05:55:00;;;;;;;10.18;2.40;;;;;;;;;;4991035;28;98325;-74
2023/01/01 05:57:27;;;;;;;10.45;2.85;;;;;;;;;;4987660;28;99624;-75
2023/01/01 05:59:53;;;;;;;4.93;2.08;;;;;;;;;;4988170;28;98289;-75
2023/01/01 06:02:20;;;;;;;6.13;2.58;;;;;;;;;;4988270;28;99734;-74
2023/01/01 06:04:46;;;;;;;7.15;1.77;;;;;;;;;;4988145;28;99132;-74
2023/01/01 06:07:13;;;;;;;9.80;2.20;;;;;;;;;;4987844;28;98560;-74
2023/01/01 06:09:39;;;;;;;6.72;2.38;;;;;;;;;;4987798;28;99446;-74
2023/01/01 06:12:06;;;;;;;7.10;2.50;;;;;;;;;;4988313;28;100352;-74
2023/01/01 06:14:32;;;;;;;8.75;1.95;;;;;;;;;;4987407;28;98293;-74
2023/01/01 06:16:58;;;;;;;11.13;2.08;;;;;;;;;;4991447;28;99532;-74
2023/01/01 06:19:25;;;;;;;6.78;2.25;;;;;;;;;;4986393;28;98292;-74
2023/01/01 06:21:51;;;;;;;12.68;2.03;;;;;;;;;;4988612;28;98745;-74
2023/01/01 06:24:17;;;;;;;6.25;1.42;;;;;;;;;;4987784;28;99112;-74
2023/01/01 06:26:44;;;;;;;5.57;1.67;;;;;;;;;;4987481;28;98125;-74
2023/01/01 06:29:10;;;;;;;8.73;2.13;;;;;;;;;;4988022;28;98452;-74
2023/01/01 06:31:37;;;;;;;4.70;1.50;;;;;;;;;;4987737;28;98990;-74
2023/01/01 06:34:06;;;;;;;6.22;1.50;;;;;;;;;;4986962;28;98262;-74
2023/01/01 06:36:32;;;;;;;7.55;2.10;;;;;;;;;;4987786;28;98946;-74
2023/01/01 06:38:59;;;;;;;8.10;1.92;;;;;;;;;;4991245;28;99001;-74
2023/01/01 06:41:26;;;;;;;7.78;2.00;;;;;;;;;;4987144;28;98563;-74
2023/01/01 06:43:56;;;;;;;7.25;2.80;;;;;;;;;;4986732;28;99142;-75
2023/01/01 06:46:27;;;;;;;6.63;2.05;;;;;;;;;;4987658;28;98276;-75
2023/01/01 06:48:58;;;;;;;5.00;1.60;;;;;;;;;;4987473;28;98388;-74
2023/01/01 06:51:26;;;;;;;3.20;1.65;;;;;;;;;;4987424;28;98948;-73
2023/01/01 06:53:53;;;;;;;7.03;1.88;;;;;;;;;;4987645;28;98383;-73
2023/01/01 06:56:19;;;;;;;5.80;1.70;;;;;;;;;;4986954;28;98701;-73
2023/01/01 06:58:46;;;;;;;6.90;1.75;;;;;;;;;;4987149;28;99244;-75
2023/01/01 07:01:12;;;;;;;5.25;1.25;;;;;;;;;;4991305;28;98301;-74
2023/01/01 07:03:39;;;;;;;6.00;1.23;;;;;;;;;;4986412;28;100203;-74
2023/01/01 07:06:06;;;;;;;12.38;2.35;;;;;;;;;;4987668;28;98203;-74
2023/01/01 07:08:33;;;;;;;6.65;1.88;;;;;;;;;;4985454;28;99498;-74
2023/01/01 07:10:59;;;;;;;6.68;1.58;;;;;;;;;;4986469;28;100065;-74
2023/01/01 07:13:26;;;;;;;6.65;1.80;;;;;;;;;;4987145;28;98350;-74
2023/01/01 07:15:53;;;;;;;7.60;1.70;;;;;;;;;;4986925;28;99483;-75
2023/01/01 07:18:20;;;;;;;6.05;1.65;;;;;;;;;;4987576;28;99064;-74
2023/01/01 07:20:51;;;;;;;10.00;1.83;;;;;;;;;;4987061;28;98350;-75
2023/01/01 07:23:18;;;;;;;6.68;1.75;;;;;;;;;;4989656;28;98753;-75
2023/01/01 07:25:44;;;;;;;5.43;1.25;;;;;;;;;;4987179;28;98288;-74
2023/01/01 07:28:12;;;;;;;3.90;1.45;;;;;;;;;;4987249;28;99539;-75
2023/01/01 07:30:38;;;;;;;9.48;1.67;;;;;;;;;;4986293;28;99976;-74
2023/01/01 07:33:04;;;;;;;5.63;1.88;;;;;;;;;;4986292;28;98279;-74
2023/01/01 07:35:31;;;;;;;4.35;1.63;;;;;;;;;;4987100;28;98633;-74
2023/01/01 07:37:57;;;;;;;9.88;2.17;;;;;;;;;;4986108;28;100311;-74
2023/01/01 07:40:23;;;;;;;5.72;1.60;;;;;;;;;;4987359;28;98257;-75
2023/01/01 07:42:50;;;;;;;5.90;1.58;;;;;;;;;;4986855;28;98820;-74
2023/01/01 07:45:16;;;;;;;7.40;1.70;;;;;;;;;;4989310;28;98867;-74
2023/01/01 07:47:46;;;;;;;10.32;1.88;;;;;;;;;;4986722;28;99648;-74
2023/01/01 07:50:14;;;;;;;12.63;1.85;;;;;;;;;;4986838;28;100419;-74
2023/01/01 07:52:41;;;;;;;7.97;2.25;;;;;;;;;;4985970;28;98425;-74
2023/01/01 07:55:10;;;;;;;10.13;1.95;;;;;;;;;;4987001;28;98387;-75
2023/01/01 07:57:37;;;;;;;10.50;1.70;;;;;;;;;;4985789;28;99002;-74
2023/01/01 08:00:03;;;;;;;6.40;3.20;;;;;;;;;;4986121;28;98498;-74
2023/01/01 08:02:37;;;;;;;10.07;2.15;;;;;;;;;;4985274;28;98243;-75
2023/01/01 08:05:04;;;;;;;7.03;1.65;;;;;;;;;;4989526;28;98904;-74
2023/01/01 08:07:30;;;;;;;10.00;2.08;;;;;;;;;;4986491;28;99392;-74
2023/01/01 08:09:57;;;;;;;9.98;2.30;;;;;;;;;;4985779;28;98996;-73
2023/01/01 08:12:24;;;;;;;4.40;1.58;;;;;;;;;;4985823;28;98467;-74
2023/01/01 08:14:50;;;;;;;6.53;1.70;;;;;;;;;;4987248;28;98728;-74
2023/01/01 08:17:17;;;;;;;6.63;1.55;;;;;;;;;;4986621;28;99021;-75
2023/01/01 08:19:48;;;;;;;9.75;2.03;;;;;;;;;;4985596;28;98331;-74
2023/01/01 08:22:14;;;;;;;8.18;2.03;;;;;;;;;;4988490;28;99409;-75
2023/01/01 08:24:41;;;;;;;9.32;1.60;;;;;;;;;;4989763;28;100211;-74
2023/01/01 08:27:09;;;;;;;7.95;1.40;;;;;;;;;;4992758;28;98280;-74
2023/01/01 08:29:35;;;;;;;7.18;1.35;;;;;;;;;;4990038;28;100051;-74
2023/01/01 08:32:02;;;;;;;7.50;1.58;;;;;;;;;;4990122;28;98439;-74
2023/01/01 08:34:28;;;;;;;6.95;1.98;;;;;;;;;;4989312;28;98904;-74
2023/01/01 08:36:54;;;;;;;11.75;2.00;;;;;;;;;;4989619;28;99915;-74
2023/01/01 08:39:21;;;;;;;6.13;1.90;;;;;;;;;;4990082;28;98345;-75
2023/01/01 08:41:47;;;;;;;5.60;1.40;;;;;;;;;;4988874;28;99362;-74
2023/01/01 08:44:13;;;;;;;14.75;2.25;;;;;;;;;;4989311;28;100043;-75
2023/01/01 08:46:40;;;;;;;8.82;2.03;;;;;;;;;;4988575;28;98268;-75
2023/01/01 08:49:06;;;;;;;6.22;2.00;;;;;;;;;;4991976;28;99338;-75
2023/01/01 08:51:32;;;;;;;6.60;1.50;;;;;;;;;;4988945;28;98343;-75
2023/01/01 08:53:59;;;;;;;6.38;2.20;;;;;;;;;;4989657;28;99730;-75
2023/01/01 08:56:25;;;;;;;11.50;2.42;;;;;;;;;;4988518;28;100049;-75
2023/01/01 08:58:52;;;;;;;9.52;2.38;;;;;;;;;;4989813;28;98294;-75
2023/01/01 09:01:25;;;;;;;9.10;1.80;;;;;;;;;;4988834;28;98887;-75
2023/01/01 09:03:51;;;;;;;7.38;1.77;;;;;;;;;;4989568;28;98666;-75
2023/01/01 09:06:18;;;;;;;17.83;2.08;;;;;;;;;;4989042;28;98264;-75
2023/01/01 09:08:44;;;;;;;6.95;1.90;;;;;;;;;;4987992;28;99717;-75
2023/01/01 09:11:19;;;;;;;16.83;2.35;;;;;;;;;;4991806;28;99860;-75
2023/01/01 09:13:45;;;;;;;8.30;1.90;;;;;;;;;;4989243;28;98978;-75
2023/01/01 09:16:11;;;;;;;9.43;2.03;;;;;;;;;;4988593;28;100201;-74
2023/01/01 09:18:38;;;;;;;9.73;2.47;;;;;;;;;;4988700;28;98063;-75
2023/01/01 09:21:05;;;;;;;9.73;1.95;;;;;;;;;;4988958;28;101224;-75
2023/01/01 09:23:31;;;;;;;13.13;2.75;;;;;;;;;;4988362;28;99028;-75
2023/01/01 09:26:02;;;;;;;13.50;1.70;;;;;;;;;;4989124;28;98263;-75
2023/01/01 09:28:29;;;;;;;10.63;2.33;;;;;;;;;;4988880;28;100339;-75
2023/01/01 09:30:55;;;;;;;6.10;2.22;;;;;;;;;;4988189;28;100739;-75
2023/01/01 09:33:22;;;;;;;12.40;2.20;;;;;;;;;;4991476;28;98317;-75
2023/01/01 09:35:48;;;;;;;7.50;1.95;;;;;;;;;;4987918;28;99880;-75
2023/01/01 09:38:15;;;;;;;6.45;1.52;;;;;;;;;;4988395;28;98336;-75
2023/01/01 09:40:50;;;;;;;12.05;1.90;;;;;;;;;;4989113;28;98777;-75
2023/01/01 09:43:22;;;;;;;8.30;1.67;;;;;;;;;;4988042;28;100472;-75
2023/01/01 09:45:49;;;;;;;8.77;1.98;;;;;;;;;;4988828;28;98244;-75
2023/01/01 09:48:16;;;;;;;12.65;2.13;;;;;;;;;;4989087;28;98669;-75
2023/01/01 09:50:43;;;;;;;11.02;2.22;;;;;;;;;;4987604;28;100004;-74
2023/01/01 09:53:28;;;;;;;9.32;2.00;;;;;;;;;;4992310;28;98215;-75
2023/01/01 09:55:56;;;;;;;6.57;1.60;;;;;;;;;;4988244;28;100028;-75
2023/01/01 09:58:27;;;;;;;8.20;2.10;;;;;;;;;;4987794;28;98532;-76
2023/01/01 10:00:57;;;;;;;10.70;2.35;;;;;;;;;;4987641;28;99377;-74
2023/01/01 10:03:23;;;;;;;7.80;2.08;;;;;;;;;;4988296;28;100039;-75
2023/01/01 10:05:53;;;;;;;13.32;2.08;;;;;;;;;;4987689;28;98249;-74
2023/01/01 10:08:26;;;;;;;12.98;2.40;;;;;;;;;;4988737;28;99202;-75
2023/01/01 10:11:11;;;;;;;7.70;1.98;;;;;;;;;;4988212;28;99944;-75
2023/01/01 10:13:40;;;;;;;11.40;2.75;;;;;;;;;;4987764;28;99298;-75
2023/01/01 10:16:10;;;;;;;8.93;1.48;;;;;;;;;;4991201;28;98615;-75
2023/01/01 10:18:39;;;;;;;12.38;2.35;;;;;;;;;;4987783;28;99327;-75
2023/01/01 10:21:15;;;;;;;8.48;2.55;;;;;;;;;;4988068;28;99711;-75
2023/01/01 10:23:51;;;;;;;8.13;1.80;;;;;;;;;;4987847;28;100947;-76
2023/01/01 10:26:20;;;;;;;12.70;3.00;;;;;;;;;;4986621;28;98286;-75
2023/01/01 10:28:49;;;;;;;10.35;2.50;;;;;;;;;;4988383;28;98641;-75
2023/01/01 10:31:22;;;;;;;11.70;2.58;;;;;;;;;;4988055;28;100387;-75
2023/01/01 10:33:49;;;;;;;12.10;2.33;;;;;;;;;;4987476;28;98380;-75
2023/01/01 10:36:16;;;;;;;10.18;2.50;;;;;;;;;;4988022;28;99418;-75
2023/01/01 10:38:43;;;;;;;7.15;2.22;;;;;;;;;;4990985;28;101432;-75
2023/01/01 10:41:10;;;;;;;14.55;2.20;;;;;;;;;;4987330;28;99402;-75
2023/01/01 10:43:45;;;;;;;10.32;2.88;;;;;;;;;;4987660;28;99456;-75
2023/01/01 10:46:12;;;;;;;6.32;1.83;;;;;;;;;;4987972;28;99144;-75
2023/01/01 10:48:41;;;;;;;8.43;2.33;;;;;;;;;;4986948;28;99169;-75
2023/01/01 10:51:13;;;;;;;13.20;2.58;;;;;;;;;;4986766;28;100049;-75
2023/01/01 10:53:41;;;;;;;10.70;2.63;;;;;;;;;;4986638;28;98159;-75
2023/01/01 10:56:14;;;;;;;10.00;2.08;;;;;;;;;;4987512;28;99663;-75
2023/01/01 10:58:43;;;;;;;9.45;2.35;;;;;;;;;;4986974;28;99222;-75
2023/01/01 11:01:11;;;;;;;11.90;3.08;;;;;;;;;;4990312;28;98374;-75
2023/01/01 11:03:52;;;;;;;11.52;2.42;;;;;;;;;;4987323;28;100372;-75
2023/01/01 11:06:20;;;;;;;13.82;4.22;;;;;;;;;;4987526;28;98171;-75
2023/01/01 11:08:48;;;;;;;10.68;2.10;;;;;;;;;;4986596;28;98557;-75
2023/01/01 11:11:38;;;;;;;8.63;2.90;;;;;;;;;;4987519;28;98952;-75
2023/01/01 11:14:12;;;;;;;16.00;2.50;;;;;;;;;;4984227;28;98465;-74
2023/01/01 11:16:39;;;;;;;7.20;2.20;;;;;;;;;;4985590;28;99543;-75
2023/01/01 11:19:06;;;;;;;9.70;2.20;;;;;;;;;;4987542;28;98921;-75
2023/01/01 11:21:33;;;;;;;4.90;2.10;;;;;;;;;;4986769;28;98318;-75
2023/01/01 11:24:08;;;;;;;8.10;2.55;;;;;;;;;;4989911;28;99466;-74
2023/01/01 11:26:35;;;;;;;9.63;2.20;;;;;;;;;;4986767;28;98265;-75
2023/01/01 11:29:01;;;;;;;10.38;2.50;;;;;;;;;;4987079;28;99573;-75
2023/01/01 11:31:33;;;;;;;8.65;2.40;;;;;;;;;;4986636;28;98942;-75
2023/01/01 11:33:59;;;;;;;8.68;2.53;;;;;;;;;;4987481;28;98179;-74
2023/01/01 11:36:28;;;;;;;11.52;2.28;;;;;;;;;;4986537;28;98704;-75
2023/01/01 11:39:13;;;;;;;8.82;2.85;;;;;;;;;;4986788;28;99183;-75
2023/01/01 11:41:40;;;;;;;12.18;3.42;;;;;;;;;;4986137;28;98295;-74
2023/01/01 11:44:08;;;;;;;8.98;2.70;;;;;;;;;;4986610;28;99441;-75
2023/01/01 11:46:36;;;;;;;14.43;2.80;;;;;;;;;;4989712;28;100391;-73
2023/01/01 11:49:11;;;;;;;8.57;2.80;;;;;;;;;;4987340;28;99429;-75
2023/01/01 11:51:37;;;;;;;15.63;3.65;;;;;;;;;;4986032;28;99252;-74
2023/01/01 11:54:09;;;;;;;8.63;2.38;;;;;;;;;;4987059;28;98571;-74
2023/01/01 11:56:35;;;;;;;8.77;2.47;;;;;;;;;;4988381;28;99488;-74
2023/01/01 11:59:13;;;;;;;6.45;2.80;;;;;;;;;;4989624;28;100079;-75
2023/01/01 12:01:47;;;;;;;12.73;2.80;;;;;;;;;;4990169;28;98257;-75
2023/01/01 12:04:17;;;;;;;16.60;3.13;;;;;;;;;;4990015;28;98714;-75
2023/01/01 12:07:09;;;;;;;11.07;2.70;;;;;;;;;;4993240;28;98991;-75
2023/01/01 12:09:56;;;;;;;14.60;3.22;;;;;;;;;;4989439;28;99703;-75
2023/01/01 12:12:26;;;;;;;11.52;2.92;;;;;;;;;;4989710;28;99878;-76
2023/01/01 12:14:56;;;;;;;9.20;2.65;;;;;;;;;;4990512;28;98068;-76
2023/01/01 12:17:25;;;;;;;7.47;2.97;;;;;;;;;;4990287;28;99519;-75
2023/01/01 12:19:51;;;;;;;17.98;3.88;;;;;;;;;;4989095;28;99620;-75
2023/01/01 12:22:18;;;;;;;12.38;3.13;;;;;;;;;;4989871;28;98274;-75
2023/01/01 12:24:46;;;;;;;13.05;2.78;;;;;;;;;;4990056;28;99367;-75
2023/01/01 12:27:22;;;;;;;14.70;3.83;;;;;;;;;;4990736;28;99009;-75
2023/01/01 12:29:51;;;;;;;12.27;3.15;;;;;;;;;;4993360;28;98474;-76
2023/01/01 12:32:33;;;;;;;15.63;3.25;;;;;;;;;;4988269;28;99168;-76
2023/01/01 12:35:06;;;;;;;18.10;3.65;;;;;;;;;;4989672;28;98250;-76
2023/01/01 12:37:45;;;;;;;13.68;3.08;;;;;;;;;;4989625;28;98813;-74
2023/01/01 12:40:32;;;;;;;20.20;3.75;;;;;;;;;;4988908;28;100128;-74
2023/01/01 12:43:09;;;;;;;13.25;3.67;;;;;;;;;;4989785;28;98400;-75
2023/01/01 12:45:48;;;;;;;7.72;2.55;;;;;;;;;;4989302;28;100053;-75
2023/01/01 12:48:32;;;;;;;15.13;3.40;;;;;;;;;;4989008;28;98955;-75
2023/01/01 12:51:04;;;;;;;14.07;3.78;;;;;;;;;;4989929;28;98318;-75
2023/01/01 12:53:44;;;;;;;15.35;3.10;;;;;;;;;;4991567;28;99348;-75
2023/01/01 12:56:21;;;;;;;13.80;2.80;;;;;;;;;;4989907;28;98330;-75
2023/01/01 12:59:01;;;;;;;13.70;3.30;;;;;;;;;;4988533;28;100135;-76
2023/01/01 13:01:30;;;;;;;11.30;2.45;;;;;;;;;;4988043;28;100118;-75
2023/01/01 13:04:01;;;;;;;14.03;3.37;;;;;;;;;;4989515;28;98881;-75
2023/01/01 13:06:50;;;;;;;8.90;2.70;;;;;;;;;;4989319;28;98470;-75
2023/01/01 13:09:25;;;;;;;10.85;2.72;;;;;;;;;;4983557;28;99545;-75
2023/01/01 13:11:53;;;;;;;13.25;3.10;;;;;;;;;;4989362;28;98239;-75
2023/01/01 13:14:19;;;;;;;17.88;3.88;;;;;;;;;;4988531;28;99741;-75
2023/01/01 13:16:52;;;;;;;16.48;3.03;;;;;;;;;;4992336;28;99011;-74
2023/01/01 13:19:24;;;;;;;15.27;3.38;;;;;;;;;;4989142;28;99208;-76
2023/01/01 13:21:51;;;;;;;12.40;3.13;;;;;;;;;;4988301;28;99963;-75
2023/01/01 13:24:19;;;;;;;23.38;3.95;;;;;;;;;;4988462;28;98074;-74
2023/01/01 13:26:47;;;;;;;19.80;4.15;;;;;;;;;;4988789;28;99608;-75
2023/01/01 13:29:14;;;;;;;20.05;3.53;;;;;;;;;;4988447;28;99169;-75
2023/01/01 13:31:40;;;;;;;15.13;3.38;;;;;;;;;;4988609;28;98530;-75
2023/01/01 13:34:26;;;;;;;16.08;2.92;;;;;;;;;;4988894;28;99239;-74
2023/01/01 13:37:16;;;;;;;13.30;2.85;;;;;;;;;;4988206;28;100287;-75
2023/01/01 13:39:52;;;;;;;16.85;3.55;;;;;;;;;;4991707;28;98094;-74
2023/01/01 13:42:38;;;;;;;14.18;3.38;;;;;;;;;;4988894;28;99168;-74
2023/01/01 13:45:15;;;;;;;12.73;2.90;;;;;;;;;;4988779;28;98379;-75
2023/01/01 13:48:04;;;;;;;18.48;3.75;;;;;;;;;;4988915;28;99069;-75
2023/01/01 13:50:48;;;;;;;17.48;3.67;;;;;;;;;;4986992;28;99297;-75
2023/01/01 13:53:34;;;;;;;18.17;3.55;;;;;;;;;;4988628;28;98195;-75
2023/01/01 13:56:06;;;;;;;12.15;3.10;;;;;;;;;;4988535;28;99441;-75
2023/01/01 13:58:35;;;;;;;15.07;3.25;;;;;;;;;;4987769;28;99325;-75
2023/01/01 14:01:10;;;;;;;20.70;3.25;;;;;;;;;;4988606;28;98265;-76
2023/01/01 14:03:40;;;;;;;16.45;3.78;;;;;;;;;;4990717;28;99755;-75
2023/01/01 14:06:11;;;;;;;11.68;3.42;;;;;;;;;;4988457;28;98253;-75
2023/01/01 14:08:37;;;;;;;16.63;3.72;;;;;;;;;;4987721;28;98859;-75
2023/01/01 14:11:22;;;;;;;12.98;3.38;;;;;;;;;;4987544;28;99139;-76
2023/01/01 14:13:49;;;;;;;15.60;2.95;;;;;;;;;;4988428;28;98322;-74
2023/01/01 14:16:16;;;;;;;13.93;3.00;;;;;;;;;;4987450;28;99555;-75
2023/01/01 14:18:47;;;;;;;14.32;2.90;;;;;;;;;;4986319;28;99791;-75
2023/01/01 14:21:16;;;;;;;17.20;3.42;;;;;;;;;;4988702;28;98697;-75
2023/01/01 14:23:50;;;;;;;19.70;3.58;;;;;;;;;;4990957;28;98885;-75
2023/01/01 14:26:20;;;;;;;12.15;3.05;;;;;;;;;;4987219;28;98447;-75
2023/01/01 14:28:46;;;;;;;16.90;3.65;;;;;;;;;;4987899;28;99566;-75
2023/01/01 14:31:15;;;;;;;13.80;3.22;;;;;;;;;;4987756;28;100032;-74
2023/01/01 14:33:42;;;;;;;15.10;3.95;;;;;;;;;;4987207;28;98502;-74
2023/01/01 14:36:16;;;;;;;22.30;3.85;;;;;;;;;;4988107;28;98623;-75
2023/01/01 14:38:44;;;;;;;13.10;3.35;;;;;;;;;;4986772;28;100033;-74
2023/01/01 14:41:13;;;;;;;16.83;3.53;;;;;;;;;;4987272;28;98334;-75
2023/01/01 14:43:41;;;;;;;17.88;2.92;;;;;;;;;;4987222;28;99566;-75
2023/01/01 14:46:12;;;;;;;12.52;3.17;;;;;;;;;;4990145;28;98989;-75
2023/01/01 14:48:41;;;;;;;14.63;3.22;;;;;;;;;;4987604;28;99713;-75
2023/01/01 14:51:10;;;;;;;16.48;3.53;;;;;;;;;;4987481;28;100163;-75
2023/01/01 14:53:37;;;;;;;14.45;3.47;;;;;;;;;;4986723;28;98340;-75